Terminal Aerodrome Forecast
Issued by NWS

Home | Current Version | Previous Version | Text Only | Print | Product List | Glossary On
Versions: 1 2 3 4 5 6 7 8 9 10 11 12 13
797
FTUS45 KRIW 302112 AAA
TAFLND
TAF AMD
KLND 302112Z 3021/3118 29014G22KT P6SM VCSH SCT080
     FM310300 36012KT P6SM SCT050 BKN100
     FM310600 29005KT P6SM BKN040
     FM311500 05005KT P6SM FEW060=

USA.gov is the U.S. government's official web portal to all federal, state and local government web resources and services.